Latest Weather Observations for Cape Otway

IDV60801

Issued at 8:02 am EDT Tuesday 27 October 2020 (issued every 10 minutes, with the page automatically refreshed every 10 minutes)

About weather observations | Map of weather stations | Latest weather observations for VIC | Other Formats
Station Details ID: 090015 Name: CAPE OTWAY LIGHTHOUSE Lat: -38.86 Lon: 143.51 Height: 82.0 m
Data from the previous 72 hours. | See also: Recent months at Cape Otway
Date/Time
EDT
Temp
°C
App
Temp
°C
Dew
Point
°C
Rel
Hum
%
Delta-T
°C
Wind Press
QNH
hPa
Press
MSL
hPa
Rain since
9am
mm
Dir  Spd
km/h
Gust
km/h
Spd
kts
Gust
kts
27/08:00am 12.3 5.5 7.0 70 2.5 E 32 52 17 28 1025.0 1025.0 0.0
27/07:30am 12.5 5.8 7.4 71 2.5 E 32 54 17 29 1024.9 1024.9 0.0
27/07:00am 12.5 5.9 7.8 73 2.3 E 32 54 17 29 1024.6 1024.6 0.0
27/06:30am 12.2 4.8 6.7 69 2.6 E 35 54 19 29 1024.5 1024.5 0.0
27/06:00am 12.2 5.4 6.9 70 2.5 E 32 52 17 28 1024.3 1024.3 0.0
27/05:30am 12.2 5.4 7.5 73 2.3 E 33 59 18 32 1024.3 1024.3 0.0
27/05:00am 12.1 5.5 7.6 74 2.2 E 32 50 17 27 1024.4 1024.4 0.0
27/04:30am 12.3 5.7 7.6 73 2.3 E 32 50 17 27 1024.5 1024.5 0.0
27/04:00am 12.3 5.5 7.6 73 2.3 E 33 54 18 29 1024.6 1024.6 0.0
27/03:30am 12.3 5.1 7.8 74 2.2 E 35 57 19 31 1024.5 1024.5 0.0
27/03:04am 12.1 5.3 7.6 74 2.2 E 33 63 18 34 1024.6 1024.6 0.0
27/03:00am 12.3 5.9 8.4 77 1.9 E 32 46 17 25 1024.5 1024.5 0.0
27/02:30am 12.2 5.5 7.5 73 2.3 E 32 52 17 28 1024.9 1024.9 0.0
27/02:00am 12.2 5.5 7.5 73 2.3 E 32 50 17 27 1025.1 1025.1 0.0
27/01:30am 12.2 4.8 6.9 70 2.5 E 35 54 19 29 1025.4 1025.4 0.0
27/01:00am 12.3 5.6 8.0 75 2.1 E 33 54 18 29 1025.6 1025.6 0.0
27/12:33am 12.3 6.0 7.2 71 2.5 E 30 48 16 26 1025.7 1025.7 0.0
27/12:30am 12.4 6.2 7.9 74 2.2 E 30 46 16 25 1025.7 1025.7 0.0
27/12:00am 12.4 5.8 7.9 74 2.2 E 32 50 17 27 1025.9 1025.9 0.0
 
Date/Time
EDT
Temp
°C
App
Temp
°C
Dew
Point
°C
Rel
Hum
%
Delta-T
°C
Wind Press
QNH
hPa
Press
MSL
hPa
Rain since
9am
mm
Dir  Spd
km/h
Gust
km/h
Spd
kts
Gust
kts
26/11:30pm 12.4 5.8 7.7 73 2.3 E 32 54 17 29 1026.2 1026.2 0.0
26/11:00pm 12.6 5.3 7.1 69 2.6 E 35 54 19 29 1026.3 1026.3 0.0
26/10:30pm 12.6 5.8 7.1 69 2.7 E 32 54 17 29 1026.5 1026.6 0.0
26/10:00pm 12.6 5.2 6.9 68 2.7 E 35 56 19 30 1026.2 1026.2 0.0
26/09:30pm 12.5 5.6 7.2 70 2.6 E 33 54 18 29 1026.1 1026.1 0.0
26/09:00pm 12.4 5.3 8.1 75 2.1 E 35 59 19 32 1025.9 1025.9 0.0
26/08:30pm 12.4 5.2 7.7 73 2.3 E 35 56 19 30 1025.6 1025.6 0.0
26/08:00pm 12.2 4.5 7.1 71 2.4 E 37 67 20 36 1025.5 1025.5 0.0
26/07:30pm 12.3 5.5 7.6 73 2.3 E 33 57 18 31 1025.4 1025.4 0.0
26/07:00pm 12.4 5.1 7.3 71 2.5 E 35 57 19 31 1025.4 1025.4 0.0
26/06:30pm 12.7 4.6 7.2 69 2.7 E 39 65 21 35 1025.2 1025.2 0.0
26/06:00pm 12.6 4.0 6.4 66 2.9 E 41 69 22 37 1025.1 1025.1 0.0
26/05:30pm 12.7 4.9 6.5 66 3.0 E 37 65 20 35 1025.2 1025.2 0.0
26/05:00pm 12.8 4.0 7.3 69 2.7 E 43 67 23 36 1025.0 1025.0 0.0
26/04:30pm 12.9 4.2 7.6 70 2.6 E 43 63 23 34 1025.0 1025.0 0.0
26/04:00pm 13.3 5.3 7.5 68 2.8 E 39 57 21 31 1025.2 1025.2 0.0
26/03:30pm 12.4 3.4 7.3 71 2.5 E 44 67 24 36 1025.3 1025.3 0.0
26/03:00pm 13.5 5.5 7.3 66 3.0 E 39 65 21 35 1025.7 1025.7 0.0
26/02:30pm 13.2 4.3 7.0 66 3.0 E 43 63 23 34 1025.8 1025.8 0.0
26/02:00pm 12.5 3.1 7.2 70 2.6 ESE 46 67 25 36 1025.8 1025.8 0.0
26/01:30pm 12.8 4.7 6.8 67 2.9 E 39 57 21 31 1026.1 1026.1 0.0
26/01:00pm 13.0 3.9 7.0 67 2.9 ESE 44 63 24 34 1026.1 1026.1 0.0
26/12:30pm 12.9 4.0 6.7 66 3.0 E 43 65 23 35 1026.3 1026.3 0.0
26/12:00pm 12.8 4.3 7.0 68 2.8 E 41 61 22 33 1026.5 1026.6 0.0
26/11:30am 13.0 5.0 5.7 61 3.4 E 37 56 20 30 1026.8 1026.9 0.0
26/11:00am 13.0 5.5 6.4 64 3.1 E 35 57 19 31 1027.0 1027.1 0.0
26/10:30am 12.4 5.4 6.7 68 2.7 E 33 54 18 29 1027.1 1027.2 0.0
26/10:00am 11.8 5.0 5.2 64 3.0 E 30 52 16 28 1027.0 1027.1 0.0
26/09:30am 12.2 3.2 4.4 59 3.6 E 41 61 22 33 1026.6 1026.7 0.0
26/09:00am 11.5 2.3 5.6 67 2.7 E 43 67 23 36 1026.5 1026.6 0.0
26/08:30am 11.8 4.3 4.5 61 3.3 E 33 59 18 32 1026.6 1026.7 0.0
26/08:00am 11.8 3.9 4.1 59 3.4 E 35 56 19 30 1026.4 1026.4 0.0
26/07:30am 12.1 4.6 4.6 60 3.4 E 33 54 18 29 1026.4 1026.4 0.0
26/07:00am 11.5 3.9 4.0 60 3.3 E 33 52 18 28 1026.2 1026.2 0.0
26/06:30am 11.5 3.4 3.5 58 3.5 E 35 57 19 31 1026.0 1026.0 0.0
26/06:00am 11.3 3.8 3.3 58 3.5 E 32 54 17 29 1025.8 1025.8 0.0
26/05:30am 11.5 3.9 3.0 56 3.7 E 32 54 17 29 1025.8 1025.8 0.0
26/05:00am 11.5 4.1 4.0 60 3.3 E 32 56 17 30 1025.7 1025.7 0.0
26/04:30am 11.4 4.0 3.9 60 3.4 E 32 50 17 27 1025.8 1025.8 0.0
26/04:00am 11.5 4.1 3.8 59 3.4 E 32 52 17 28 1025.7 1025.7 0.0
26/03:30am 11.4 3.8 3.9 60 3.4 E 33 54 18 29 1025.7 1025.7 0.0
26/03:01am 11.4 4.4 3.9 60 3.4 E 30 48 16 26 1025.8 1025.8 0.0
26/03:00am 11.4 4.4 4.2 61 3.2 E 30 46 16 25 1025.8 1025.8 0.0
26/02:30am 11.4 4.5 4.8 64 3.0 E 30 48 16 26 1025.9 1025.9 0.0
26/02:00am 11.0 4.9 6.4 73 2.2 E 28 52 15 28 1026.2 1026.2 0.0
26/01:43am 11.6 3.9 5.3 65 2.9 E 35 54 19 29 1026.1 1026.1 0.0
26/01:30am 11.5 3.5 5.6 67 2.7 ESE 37 54 20 29 1026.2 1026.2 0.0
26/01:08am 11.3 4.1 5.8 69 2.6 ESE 33 52 18 28 1026.4 1026.4 0.0
26/01:00am 11.2 3.9 5.5 68 2.6 ESE 33 44 18 24 1026.5 1026.6 0.0
26/12:30am 10.9 3.1 5.0 67 2.7 ESE 35 48 19 26 1026.6 1026.7 0.0
26/12:00am 10.8 2.9 4.5 65 2.8 ESE 35 44 19 24 1026.6 1026.7 0.0
 
Date/Time
EDT
Temp
°C
App
Temp
°C
Dew
Point
°C
Rel
Hum
%
Delta-T
°C
Wind Press
QNH
hPa
Press
MSL
hPa
Rain since
9am
mm
Dir  Spd
km/h
Gust
km/h
Spd
kts
Gust
kts
25/11:30pm 10.7 3.1 4.0 63 3.0 ESE 33 43 18 23 1026.6 1026.7 0.0
25/11:00pm 10.8 3.1 3.6 61 3.2 ESE 33 43 18 23 1026.8 1026.9 0.0
25/10:30pm 10.6 3.1 3.6 62 3.1 ESE 32 46 17 25 1026.8 1026.9 0.0
25/10:00pm 10.5 3.0 3.5 62 3.1 ESE 32 43 17 23 1026.8 1026.9 0.0
25/09:47pm 10.4 3.7 3.9 64 2.9 ESE 28 46 15 25 1026.6 1026.7 0.0
25/09:30pm 10.3 2.7 3.8 64 2.9 ESE 33 44 18 24 1026.5 1026.6 0.0
25/09:00pm 10.4 3.4 4.1 65 2.8 ESE 30 43 16 23 1026.3 1026.3 0.0
25/08:30pm 10.3 2.7 4.0 65 2.8 ESE 33 43 18 23 1026.0 1026.0 0.0
25/08:00pm 10.2 2.7 3.7 64 2.8 ESE 32 44 17 24 1025.8 1025.8 0.0
25/07:30pm 10.3 3.2 3.6 63 2.9 ESE 30 43 16 23 1025.5 1025.5 0.0
25/07:00pm 10.4 3.6 3.0 60 3.2 ESE 28 43 15 23 1025.3 1025.3 0.0
25/06:31pm 10.5 2.9 3.1 60 3.2 ESE 32 50 17 27 1024.9 1024.9 0.0
25/06:30pm 10.5 2.8 3.3 61 3.2 ESE 33 50 18 27 1024.9 1024.9 0.0
25/06:25pm 10.6 3.1 3.2 60 3.2 ESE 32 50 17 27 1025.0 1025.0 0.0
25/06:00pm 11.0 4.8 4.2 63 3.0 SE 26 43 14 23 1024.9 1024.9 0.0
25/05:41pm 10.8 4.0 3.1 59 3.4 ESE 28 46 15 25 1024.7 1024.7 0.0
25/05:30pm 10.8 4.8 3.4 60 3.3 SE 24 41 13 22 1024.6 1024.6 0.0
25/05:00pm 11.5 6.3 3.8 59 3.4 SE 20 43 11 23 1024.5 1024.5 0.0
25/04:30pm 11.8 6.8 3.6 57 3.7 SE 19 32 10 17 1024.4 1024.4 0.0
25/04:00pm 11.7 6.2 4.0 59 3.4 SE 22 37 12 20 1024.3 1024.3 0.0
25/03:30pm 11.6 6.1 3.9 59 3.4 SE 22 41 12 22 1024.5 1024.5 0.0
25/03:00pm 11.8 5.8 3.6 57 3.6 SE 24 35 13 19 1024.5 1024.5 0.0
25/02:30pm 11.4 4.4 2.2 53 4.0 SE 28 41 15 22 1024.4 1024.4 0.0
25/02:27pm 11.4 4.5 2.7 55 3.8 SE 28 46 15 25 1024.4 1024.4 0.0
25/02:00pm 11.4 4.9 2.9 56 3.7 SE 26 43 14 23 1024.2 1024.2 0.0
25/01:35pm 11.0 4.0 1.8 53 3.9 SE 28 50 15 27 1024.0 1024.0 0.0
25/01:30pm 11.8 5.4 3.1 55 3.8 SE 26 46 14 25 1024.0 1024.0 0.0
25/01:25pm 11.4 4.2 0.8 48 4.4 SE 28 46 15 25 1023.9 1023.9 0.0
25/01:00pm 12.2 6.9 3.2 54 4.0 S 20 39 11 21 1023.9 1023.9 0.0
25/12:30pm 11.7 5.4 1.4 49 4.4 SSE 24 41 13 22 1023.6 1023.6 0.0
25/12:00pm 11.5 5.8 0.6 47 4.5 W 20 39 11 21 1023.4 1023.4 0.0
25/11:30am 11.2 5.3 1.5 51 4.1 S 22 37 12 20 1023.8 1023.8 0.0
25/11:00am 11.1 5.8 2.9 57 3.6 SW 20 37 11 20 1023.7 1023.7 0.0
25/10:30am 11.4 6.1 3.2 57 3.6 S 20 39 11 21 1023.6 1023.6 0.0
25/10:00am 10.6 5.4 2.2 56 3.6 SW 19 35 10 19 1023.4 1023.4 0.0
25/09:30am 10.9 6.0 2.2 55 3.7 WSW 17 35 9 19 1023.2 1023.2 0.0
25/09:00am 10.5 5.2 2.1 56 3.6 SW 19 32 10 17 1022.7 1022.7 0.4
25/08:30am 10.3 5.2 0.9 52 3.9 W 17 33 9 18 1022.2 1022.2 0.4
25/08:00am 9.1 4.2 2.2 62 2.9 SW 17 26 9 14 1021.9 1021.9 0.4
25/07:30am 9.6 4.6 1.5 57 3.4 WSW 17 30 9 16 1021.0 1021.0 0.4
25/07:00am 9.2 4.2 1.1 57 3.3 WSW 17 32 9 17 1020.6 1020.6 0.4
25/06:30am 9.0 3.7 -0.6 51 3.8 WSW 17 28 9 15 1020.2 1020.2 0.4
25/06:00am 8.9 3.3 0.1 54 3.5 WSW 19 28 10 15 1019.7 1019.7 0.4
25/05:30am 9.0 2.9 0.2 54 3.5 SW 22 33 12 18 1019.4 1019.4 0.4
25/05:00am 9.3 3.4 1.5 58 3.2 SW 22 33 12 18 1018.8 1018.8 0.4
25/04:30am 9.2 3.1 0.1 53 3.6 SW 22 37 12 20 1018.2 1018.2 0.4
25/04:00am 9.3 3.5 -0.3 51 3.8 SW 20 30 11 16 1017.9 1017.9 0.4
25/03:30am 9.2 3.2 0.9 56 3.4 SW 22 37 12 20 1017.5 1017.5 0.4
25/03:00am 9.5 3.7 0.1 52 3.8 SW 20 33 11 18 1017.3 1017.3 0.4
25/02:30am 9.2 4.5 3.0 65 2.7 SW 17 32 9 17 1017.3 1017.3 0.4
25/02:00am 9.1 3.2 1.5 59 3.1 SW 22 33 12 18 1017.3 1017.3 0.4
25/01:30am 8.8 3.9 1.7 61 2.9 SW 17 30 9 16 1017.4 1017.4 0.4
25/01:00am 8.5 1.0 3.6 71 2.1 SW 32 44 17 24 1016.6 1016.6 0.4
25/12:30am 9.7 3.0 1.4 56 3.5 SW 26 44 14 24 1016.6 1016.6 0.4
25/12:00am 9.8 2.5 2.6 61 3.1 SW 30 43 16 23 1016.0 1015.9 0.4
 
Date/Time
EDT
Temp
°C
App
Temp
°C
Dew
Point
°C
Rel
Hum
%
Delta-T
°C
Wind Press
QNH
hPa
Press
MSL
hPa
Rain since
9am
mm
Dir  Spd
km/h
Gust
km/h
Spd
kts
Gust
kts
24/11:30pm 9.8 3.3 4.6 70 2.3 SW 28 39 15 21 1015.6 1015.5 0.4
24/11:05pm 9.3 2.8 4.9 74 2.0 SSW 28 46 15 25 1015.5 1015.4 0.4
24/11:00pm 9.7 2.6 5.3 74 2.0 SSW 32 46 17 25 1015.6 1015.5 0.2
24/10:48pm 10.6 3.2 4.1 64 2.9 SSW 32 50 17 27 1015.4 1015.3 0.2
24/10:30pm 10.3 3.6 3.8 64 2.9 SW 28 39 15 21 1015.2 1015.1 0.2
24/10:14pm 10.1 3.1 4.3 67 2.6 SW 30 50 16 27 1015.2 1015.1 0.2
24/10:00pm 10.5 3.3 6.1 74 2.1 SSW 33 46 18 25 1014.9 1014.9 0.2
24/09:46pm 10.4 3.4 4.3 66 2.7 SSW 30 48 16 26 1015.1 1015.0 0.2
24/09:30pm 10.5 2.6 4.4 66 2.7 SSW 35 50 19 27 1014.8 1014.8 0.2
24/09:18pm 10.2 3.0 5.0 70 2.4 SSW 32 52 17 28 1014.7 1014.7 0.2
24/09:00pm 10.2 2.6 6.0 75 1.9 SSW 35 50 19 27 1014.4 1014.4 0.2
24/08:46pm 9.5 3.4 6.4 81 1.4 SSW 28 48 15 26 1014.1 1014.1 0.2
24/08:30pm 9.3 2.6 7.4 88 0.9 SSW 32 48 17 26 1014.1 1014.1 0.2
24/08:00pm 10.3 2.3 5.5 72 2.2 SW 37 48 20 26 1013.5 1013.5 0.0
24/07:38pm 10.6 2.1 5.2 69 2.5 SW 39 59 21 32 1013.1 1013.1 0.0
24/07:30pm 10.9 2.8 5.4 69 2.5 SW 37 48 20 26 1013.0 1013.0 0.0
24/07:00pm 10.9 3.1 6.6 75 2.0 SW 37 52 20 28 1012.6 1012.6 0.0
24/06:30pm 11.2 3.4 4.9 65 2.9 SW 35 57 19 31 1012.5 1012.5 0.0
24/06:21pm 11.2 3.5 5.3 67 2.7 SW 35 54 19 29 1012.3 1012.3 0.0
24/06:00pm 12.3 4.6 3.3 54 4.0 SW 33 43 18 23 1012.2 1012.2 0.0
24/05:30pm 12.4 4.0 3.9 56 3.8 SW 37 48 20 26 1011.9 1011.9 0.0
24/05:00pm 12.2 4.6 5.8 65 3.0 SW 35 46 19 25 1011.7 1011.7 0.0
24/04:30pm 11.6 4.4 5.0 64 3.0 SW 32 43 17 23 1011.5 1011.5 0.0
24/04:00pm 11.7 2.9 3.7 58 3.6 SW 39 54 21 29 1011.3 1011.3 0.0
24/03:58pm 11.8 3.8 3.8 58 3.6 SW 35 54 19 29 1011.3 1011.3 0.0
24/03:30pm 11.8 3.9 4.3 60 3.4 SW 35 43 19 23 1011.3 1011.3 0.0
24/03:00pm 11.9 2.6 3.2 55 3.9 SW 41 54 22 29 1011.1 1011.1 0.0
24/02:30pm 11.6 2.6 4.6 62 3.2 SW 41 52 22 28 1010.9 1010.9 0.0
24/02:00pm 11.9 2.4 3.7 57 3.7 SW 43 57 23 31 1010.6 1010.6 0.0
24/01:30pm 11.5 2.0 4.7 63 3.1 SW 44 57 24 31 1010.2 1010.2 0.0
24/01:00pm 11.7 3.3 5.8 67 2.8 SW 39 54 21 29 1009.9 1009.9 0.0
24/12:37pm 11.4 3.5 6.1 70 2.5 SW 37 56 20 30 1009.8 1009.8 0.0
24/12:30pm 11.3 2.4 7.0 75 2.1 SW 43 56 23 30 1009.8 1009.8 0.0
24/12:12pm 11.7 3.7 7.4 75 2.1 SW 39 57 21 31 1009.6 1009.6 0.0
24/12:00pm 11.9 4.9 6.8 71 2.4 SSW 33 46 18 25 1009.6 1009.6 0.0
24/11:36am 11.2 3.3 7.7 79 1.7 SW 39 57 21 31 1009.3 1009.3 0.0
24/11:30am 11.5 4.0 7.8 78 1.8 SSW 37 54 20 29 1009.3 1009.3 0.0
24/11:17am 12.2 5.7 8.1 76 2.0 SW 32 54 17 29 1009.1 1009.1 0.0
24/11:00am 11.8 5.6 7.9 77 1.9 SSW 30 39 16 21 1009.1 1009.1 0.0
24/10:30am 12.0 5.4 8.5 79 1.7 SW 33 46 18 25 1008.8 1008.8 0.0
24/10:01am 11.1 5.6 9.2 88 1.0 SSW 28 54 15 29 1008.6 1008.6 0.0
24/10:00am 11.2 5.7 9.3 88 1.0 SSW 28 41 15 22 1008.6 1008.6 0.0
24/09:30am 11.9 6.5 8.0 77 1.9 SW 26 35 14 19 1008.4 1008.4 0.0
24/09:22am 11.6 5.7 7.7 77 1.9 SW 28 46 15 25 1008.3 1008.3 0.0
24/09:00am 11.9 4.8 8.2 78 1.8 SW 35 50 19 27 1008.0 1008.0 2.6
24/08:30am 11.8 6.0 6.3 69 2.6 SW 26 39 14 21 1008.0 1008.0 2.6

Other formats

Comma delimited format used in spreadsheet applications
http://www.bom.gov.au/fwo/IDV60801/IDV60801.94842.axf

JavaScript Object Notation format (JSON) in row-major order
http://www.bom.gov.au/fwo/IDV60801/IDV60801.94842.json

Data quality

Most of these data are generated automatically and are frequently updated. Quality checks on data are not normally performed. It is possible for incorrect values to appear. Refer to information at About Latest Weather Observations and please check the disclaimer before using these data.